createdAt,value
2018-03-21T00:00:28.848Z,2.90
2018-03-21T00:02:57.118Z,6.57
2018-03-21T00:05:25.383Z,3.07
2018-03-21T00:07:53.774Z,4.03
2018-03-21T00:10:22.093Z,2.10
2018-03-21T00:12:50.359Z,6.07
2018-03-21T00:15:19.498Z,6.60
2018-03-21T00:17:47.731Z,3.83
2018-03-21T00:20:15.994Z,2.27
2018-03-21T00:22:44.322Z,5.50
2018-03-21T00:25:12.573Z,3.70
2018-03-21T00:27:40.851Z,2.30
2018-03-21T00:30:09.108Z,2.80
2018-03-21T00:32:37.333Z,2.90
2018-03-21T00:35:06.359Z,2.53
2018-03-21T00:37:34.800Z,2.27
2018-03-21T00:40:03.043Z,3.13
2018-03-21T00:42:31.302Z,8.20
2018-03-21T00:44:59.584Z,7.23
2018-03-21T00:47:28.588Z,2.50
2018-03-21T00:49:57.002Z,6.07
2018-03-21T00:52:25.277Z,3.83
2018-03-21T00:54:53.488Z,2.80
2018-03-21T00:57:21.758Z,4.10
2018-03-21T00:59:50.010Z,5.00
2018-03-21T01:02:18.279Z,3.90
2018-03-21T01:04:46.504Z,4.70
2018-03-21T01:07:14.894Z,4.30
2018-03-21T01:09:43.211Z,2.73
2018-03-21T01:12:12.233Z,5.03
2018-03-21T01:14:41.265Z,3.40
2018-03-21T01:17:10.142Z,4.17
2018-03-21T01:19:39.187Z,3.50
2018-03-21T01:22:07.434Z,3.40
2018-03-21T01:24:35.680Z,4.13
2018-03-21T01:27:04.221Z,2.83
2018-03-21T01:29:32.437Z,4.37
2018-03-21T01:32:01.469Z,2.10
2018-03-21T01:34:29.872Z,3.33
2018-03-21T01:36:58.365Z,3.93
2018-03-21T01:39:26.632Z,4.00
2018-03-21T01:41:54.900Z,2.20
2018-03-21T01:44:23.177Z,3.10
2018-03-21T01:46:51.471Z,6.27
2018-03-21T01:49:19.996Z,4.57
2018-03-21T01:51:48.274Z,2.30
2018-03-21T01:54:17.195Z,4.03
2018-03-21T01:56:46.341Z,5.30
2018-03-21T01:59:14.581Z,3.57
2018-03-21T02:01:42.850Z,4.47
2018-03-21T02:04:11.614Z,4.43
2018-03-21T02:06:39.858Z,3.60
2018-03-21T02:09:08.926Z,6.63
2018-03-21T02:11:37.930Z,3.53
2018-03-21T02:14:06.242Z,2.23
2018-03-21T02:16:34.525Z,3.23
2018-03-21T02:19:02.761Z,3.67
2018-03-21T02:21:31.090Z,4.10
2018-03-21T02:23:59.478Z,2.27
2018-03-21T02:26:27.717Z,6.80
2018-03-21T02:28:55.941Z,4.43
2018-03-21T02:31:24.524Z,4.80
2018-03-21T02:33:54.176Z,2.57
2018-03-21T02:36:22.408Z,2.17
2018-03-21T02:38:50.667Z,3.83
2018-03-21T02:41:18.931Z,2.40
2018-03-21T02:43:47.188Z,2.57
2018-03-21T02:46:15.456Z,1.90
2018-03-21T02:48:43.707Z,8.53
2018-03-21T02:51:11.977Z,2.80
2018-03-21T02:53:40.217Z,2.00
2018-03-21T02:56:08.520Z,2.40
2018-03-21T02:58:36.749Z,4.00
2018-03-21T03:01:05.046Z,2.50
2018-03-21T03:03:33.346Z,4.50
2018-03-21T03:06:01.621Z,7.60
2018-03-21T03:08:29.913Z,4.00
2018-03-21T03:10:58.174Z,6.93
2018-03-21T03:13:26.458Z,2.00
2018-03-21T03:15:54.696Z,2.47
2018-03-21T03:18:22.957Z,4.47
2018-03-21T03:20:51.317Z,9.80
2018-03-21T03:23:19.580Z,2.90
2018-03-21T03:25:47.860Z,4.27
2018-03-21T03:28:16.110Z,3.90
2018-03-21T03:30:44.363Z,3.27
2018-03-21T03:33:12.631Z,2.90
2018-03-21T03:35:44.828Z,3.33
2018-03-21T03:38:13.464Z,2.27
2018-03-21T03:40:41.700Z,2.40
2018-03-21T03:43:10.689Z,5.03
2018-03-21T03:45:39.578Z,2.00
2018-03-21T03:48:08.521Z,4.70
2018-03-21T03:50:36.756Z,4.17
2018-03-21T03:53:05.021Z,4.07
2018-03-21T03:55:34.929Z,8.83
2018-03-21T03:58:03.168Z,4.60
2018-03-21T04:00:31.419Z,5.67
2018-03-21T04:02:59.694Z,4.37
2018-03-21T04:05:27.937Z,2.77
2018-03-21T04:07:56.185Z,2.20
2018-03-21T04:10:24.427Z,6.87
2018-03-21T04:12:52.662Z,4.33
2018-03-21T04:15:21.075Z,2.80
2018-03-21T04:17:50.034Z,2.33
2018-03-21T04:20:19.041Z,5.00
2018-03-21T04:22:47.318Z,5.13
2018-03-21T04:25:16.321Z,2.13
2018-03-21T04:27:45.309Z,2.40
2018-03-21T04:30:14.334Z,3.73
2018-03-21T04:32:42.628Z,2.53
2018-03-21T04:35:10.889Z,3.50
2018-03-21T04:37:40.765Z,4.13
2018-03-21T04:40:09.341Z,3.70
2018-03-21T04:42:37.571Z,6.30
2018-03-21T04:45:05.875Z,2.40
2018-03-21T04:47:34.102Z,4.57
2018-03-21T04:50:02.357Z,2.53
2018-03-21T04:52:30.661Z,2.50
2018-03-21T04:54:58.990Z,3.60
2018-03-21T04:57:27.205Z,2.93
2018-03-21T04:59:55.541Z,4.73
2018-03-21T05:02:23.775Z,3.20
2018-03-21T05:04:52.021Z,5.50
2018-03-21T05:07:21.041Z,2.73
2018-03-21T05:09:49.282Z,6.10
2018-03-21T05:12:17.513Z,3.03
2018-03-21T05:14:45.778Z,2.60
2018-03-21T05:17:14.002Z,3.80
2018-03-21T05:19:43.050Z,3.63
2018-03-21T05:22:11.470Z,4.30
2018-03-21T05:24:41.085Z,6.17
2018-03-21T05:27:10.082Z,6.93
2018-03-21T05:29:38.315Z,3.93
2018-03-21T05:32:06.594Z,4.13
2018-03-21T05:34:34.890Z,6.60
2018-03-21T05:37:03.113Z,4.17
2018-03-21T05:39:31.370Z,4.60
2018-03-21T05:41:59.740Z,3.10
2018-03-21T05:44:28.025Z,4.90
2018-03-21T05:46:56.969Z,4.50
2018-03-21T05:49:25.205Z,3.50
2018-03-21T05:51:53.475Z,3.53
2018-03-21T05:54:21.717Z,6.13
2018-03-21T05:56:50.025Z,5.00
2018-03-21T05:59:18.237Z,4.07
2018-03-21T06:01:46.687Z,7.30
2018-03-21T06:04:14.931Z,6.83
2018-03-21T06:06:43.969Z,3.87
2018-03-21T06:09:12.405Z,7.50
2018-03-21T06:11:40.689Z,6.37
2018-03-21T06:14:09.694Z,3.93
2018-03-21T06:16:38.297Z,4.67
2018-03-21T06:19:06.532Z,3.53
2018-03-21T06:21:34.750Z,5.37
2018-03-21T06:24:03.029Z,11.20
2018-03-21T06:26:31.261Z,5.40
2018-03-21T06:28:59.510Z,4.17
2018-03-21T06:31:27.823Z,3.80
2018-03-21T06:33:56.050Z,6.33
2018-03-21T06:36:24.513Z,5.83
2018-03-21T06:38:53.047Z,7.47
2018-03-21T06:41:21.291Z,4.60
2018-03-21T06:43:49.530Z,4.20
2018-03-21T06:46:17.922Z,4.37
2018-03-21T06:48:46.261Z,6.17
2018-03-21T06:51:14.586Z,9.53
2018-03-21T06:53:42.846Z,9.00
2018-03-21T06:56:11.365Z,8.07
2018-03-21T06:58:39.615Z,8.07
2018-03-21T07:01:07.873Z,5.43
2018-03-21T07:03:36.133Z,7.30
2018-03-21T07:06:05.144Z,6.80
2018-03-21T07:08:33.390Z,9.20
2018-03-21T07:11:01.612Z,9.60
2018-03-21T07:16:51.327Z,15.13
2018-03-21T07:19:19.556Z,10.40
2018-03-21T07:21:47.900Z,17.63
2018-03-21T07:24:16.107Z,15.80
2018-03-21T07:26:44.420Z,14.67
2018-03-21T07:29:13.588Z,11.53
2018-03-21T07:31:41.843Z,12.10
2018-03-21T07:34:10.120Z,14.23
2018-03-21T07:36:38.697Z,15.40
2018-03-21T07:39:06.966Z,16.50
2018-03-21T07:41:35.314Z,21.17
2018-03-21T07:44:03.668Z,25.20
2018-03-21T07:46:31.923Z,19.07
2018-03-21T07:49:00.846Z,18.20
2018-03-21T07:51:29.106Z,19.53
2018-03-21T07:53:58.441Z,19.60
2018-03-21T07:56:26.713Z,21.23
2018-03-21T07:58:55.958Z,24.87
2018-03-21T08:01:24.182Z,27.67
2018-03-21T08:03:52.501Z,33.23
2018-03-21T08:06:20.733Z,23.63
2018-03-21T08:08:49.020Z,23.80
2018-03-21T08:11:17.299Z,21.27
2018-03-21T08:13:45.710Z,25.10
2018-03-21T08:16:13.953Z,24.83
2018-03-21T08:18:42.204Z,21.97
2018-03-21T08:21:10.449Z,26.47
2018-03-21T08:23:38.726Z,27.93
2018-03-21T08:26:09.236Z,28.33
2018-03-21T08:28:39.053Z,34.17
2018-03-21T08:31:08.093Z,33.57
2018-03-21T08:33:36.345Z,30.20
2018-03-21T08:36:04.803Z,44.13
2018-03-21T08:38:33.234Z,30.17
2018-03-21T08:41:01.472Z,36.90
2018-03-21T08:43:30.536Z,36.67
2018-03-21T08:45:58.746Z,30.57
2018-03-21T08:48:27.113Z,27.03
2018-03-21T08:50:56.307Z,26.60
2018-03-21T08:53:24.673Z,33.93
2018-03-21T08:55:52.962Z,28.23
2018-03-21T08:58:21.176Z,37.90
2018-03-21T09:00:49.463Z,33.73
2018-03-21T09:03:17.695Z,33.93
2018-03-21T09:05:46.173Z,31.77
2018-03-21T09:08:15.196Z,30.63
2018-03-21T09:10:43.458Z,31.40
2018-03-21T09:13:12.477Z,34.10
2018-03-21T09:15:40.709Z,23.27
2018-03-21T09:18:08.958Z,31.80
2018-03-21T09:20:37.291Z,31.33
2018-03-21T09:23:05.485Z,27.73
2018-03-21T09:25:33.741Z,21.47
2018-03-21T09:28:02.016Z,28.97
2018-03-21T09:30:31.058Z,25.97
2018-03-21T09:33:00.131Z,27.67
2018-03-21T09:35:28.518Z,39.93
2018-03-21T09:37:56.830Z,32.10
2018-03-21T09:40:25.188Z,28.33
2018-03-21T09:42:53.483Z,36.43
2018-03-21T09:45:21.733Z,35.37
2018-03-21T09:47:50.157Z,30.20
2018-03-21T09:50:19.386Z,31.20
2018-03-21T09:52:47.693Z,41.50
2018-03-21T09:55:16.216Z,36.57
2018-03-21T09:57:44.474Z,37.70
2018-03-21T10:00:12.969Z,39.87
2018-03-21T10:02:41.188Z,49.70
2018-03-21T10:05:09.458Z,49.17
2018-03-21T10:07:38.564Z,35.20
2018-03-21T10:10:09.202Z,43.40
2018-03-21T10:12:37.621Z,41.20
2018-03-21T10:15:05.905Z,41.50
2018-03-21T10:17:34.167Z,42.43
2018-03-21T10:20:03.279Z,47.97
2018-03-21T10:22:31.540Z,43.30
2018-03-21T10:25:01.297Z,50.17
2018-03-21T10:27:29.545Z,45.97
2018-03-21T10:29:57.817Z,43.13
2018-03-21T10:32:26.106Z,45.63
2018-03-21T10:34:54.568Z,53.63
2018-03-21T10:37:23.567Z,45.33
2018-03-21T10:39:52.606Z,40.73
2018-03-21T10:42:20.911Z,51.13
2018-03-21T10:44:49.186Z,45.57
2018-03-21T10:47:17.583Z,45.70
2018-03-21T10:49:46.126Z,50.27
2018-03-21T10:52:14.393Z,48.40
2018-03-21T10:54:42.634Z,42.10
2018-03-21T10:57:11.665Z,57.00
2018-03-21T10:59:39.929Z,54.00
2018-03-21T11:02:14.061Z,57.97
2018-03-21T11:04:42.414Z,45.00
2018-03-21T11:07:10.712Z,53.47
2018-03-21T11:09:38.940Z,54.20
2018-03-21T11:12:07.182Z,56.00
2018-03-21T11:14:36.979Z,56.53
2018-03-21T11:17:06.288Z,61.97
2018-03-21T11:19:34.699Z,47.20
2018-03-21T11:22:02.995Z,63.87
2018-03-21T11:24:31.505Z,57.67
2018-03-21T11:27:00.631Z,63.10
2018-03-21T11:29:29.446Z,53.10
2018-03-21T11:31:58.518Z,44.50
2018-03-21T11:34:26.763Z,49.40
2018-03-21T11:36:55.095Z,46.10
2018-03-21T11:39:23.386Z,49.77
2018-03-21T11:41:51.661Z,45.80
2018-03-21T11:44:19.918Z,56.63
2018-03-21T11:46:48.200Z,50.93
2018-03-21T11:49:16.419Z,43.90
2018-03-21T11:51:44.995Z,46.50
2018-03-21T11:54:13.270Z,44.60
2018-03-21T11:56:41.712Z,46.00
2018-03-21T11:59:10.154Z,42.07
2018-03-21T12:01:38.468Z,44.00
2018-03-21T12:04:06.677Z,41.70
2018-03-21T12:06:35.023Z,42.70
2018-03-21T12:09:03.394Z,37.63
2018-03-21T12:11:32.437Z,41.20
2018-03-21T12:14:00.826Z,35.67
2018-03-21T12:16:29.066Z,32.87
2018-03-21T12:18:57.471Z,37.00
2018-03-21T12:21:26.479Z,42.90
2018-03-21T12:23:54.741Z,34.30
2018-03-21T12:26:22.989Z,35.30
2018-03-21T12:28:51.222Z,38.27
2018-03-21T12:31:19.506Z,35.13
2018-03-21T12:33:47.748Z,31.17
2018-03-21T12:36:16.063Z,31.60
2018-03-21T12:38:44.380Z,29.30
2018-03-21T12:41:12.641Z,32.47
2018-03-21T12:43:40.908Z,29.50
2018-03-21T12:46:09.137Z,30.37
2018-03-21T12:48:40.122Z,27.70
2018-03-21T12:51:09.853Z,31.13
2018-03-21T12:53:38.081Z,25.43
2018-03-21T12:56:06.434Z,28.87
2018-03-21T12:58:34.622Z,40.00
2018-03-21T13:01:02.885Z,28.03
2018-03-21T13:03:31.129Z,35.67
2018-03-21T13:06:00.150Z,25.20
2018-03-21T13:08:28.507Z,32.33
2018-03-21T13:10:57.512Z,28.57
2018-03-21T13:13:26.795Z,29.60
2018-03-21T13:15:55.081Z,30.30
2018-03-21T13:18:23.373Z,34.33
2018-03-21T13:20:51.625Z,33.27
2018-03-21T13:23:19.957Z,31.50
2018-03-21T13:25:48.261Z,25.23
2018-03-21T13:28:16.690Z,29.57
2018-03-21T13:30:45.028Z,28.97
2018-03-21T13:33:14.050Z,26.00
2018-03-21T13:35:43.212Z,30.83
2018-03-21T13:38:11.449Z,23.77
2018-03-21T13:40:45.874Z,30.97
2018-03-21T13:43:14.714Z,31.47
2018-03-21T13:45:43.753Z,28.50
2018-03-21T13:48:12.006Z,25.37
2018-03-21T13:50:40.469Z,24.73
2018-03-21T13:53:08.711Z,32.90
2018-03-21T13:55:36.977Z,24.27
2018-03-21T13:58:05.233Z,22.70
2018-03-21T14:00:33.790Z,29.07
2018-03-21T14:03:03.669Z,26.60
2018-03-21T14:05:32.325Z,31.33
2018-03-21T14:08:00.578Z,28.00
2018-03-21T14:10:28.907Z,20.47
2018-03-21T14:12:58.134Z,25.97
2018-03-21T14:15:26.467Z,22.70
2018-03-21T14:17:55.488Z,27.47
2018-03-21T14:20:23.766Z,24.40
2018-03-21T14:22:52.021Z,20.27
2018-03-21T14:25:21.273Z,29.17
2018-03-21T14:27:49.521Z,26.27
2018-03-21T14:30:17.840Z,24.33
2018-03-21T14:32:46.845Z,23.73
2018-03-21T14:35:16.724Z,26.87
2018-03-21T14:37:45.002Z,22.10
2018-03-21T14:40:13.432Z,27.00
2018-03-21T14:42:42.195Z,24.47
2018-03-21T14:45:11.230Z,30.27
2018-03-21T14:47:41.043Z,20.33
2018-03-21T14:50:09.345Z,18.37
2018-03-21T14:52:38.353Z,22.00
2018-03-21T14:55:06.603Z,22.07
2018-03-21T14:57:34.913Z,20.73
2018-03-21T15:00:05.199Z,32.43
2018-03-21T15:02:33.468Z,22.07
2018-03-21T15:05:03.217Z,21.10
2018-03-21T15:07:31.479Z,22.40
2018-03-21T15:09:59.759Z,23.53
2018-03-21T15:12:28.412Z,25.37
2018-03-21T15:14:56.651Z,27.17
2018-03-21T15:17:24.955Z,25.27
2018-03-21T15:19:53.235Z,28.83
2018-03-21T15:22:21.513Z,24.00
2018-03-21T15:24:49.814Z,24.70
2018-03-21T15:27:20.286Z,23.47
2018-03-21T15:29:48.806Z,26.40
2018-03-21T15:32:17.024Z,24.83
2018-03-21T15:34:45.322Z,27.03
2018-03-21T15:37:13.594Z,27.60
2018-03-21T15:39:42.121Z,28.33
2018-03-21T15:42:11.425Z,28.23
2018-03-21T15:44:39.684Z,28.30
2018-03-21T15:47:08.793Z,27.40
2018-03-21T15:49:37.427Z,23.60
2018-03-21T15:52:05.700Z,28.57
2018-03-21T15:54:34.781Z,23.90
2018-03-21T15:57:03.080Z,22.53
2018-03-21T15:59:31.933Z,25.43
2018-03-21T16:02:00.969Z,22.73
2018-03-21T16:04:30.133Z,23.43
2018-03-21T16:06:58.387Z,24.17
2018-03-21T16:09:28.064Z,24.40
2018-03-21T16:11:56.303Z,21.43
2018-03-21T16:14:25.376Z,28.50
2018-03-21T16:16:53.850Z,22.40
2018-03-21T16:19:22.081Z,24.77
2018-03-21T16:21:50.335Z,20.07
2018-03-21T16:24:19.807Z,20.60
2018-03-21T16:26:48.414Z,24.70
2018-03-21T16:29:16.945Z,25.50
2018-03-21T16:31:45.225Z,28.00
2018-03-21T16:34:13.481Z,22.40
2018-03-21T16:36:43.803Z,23.63
2018-03-21T16:39:12.129Z,24.67
2018-03-21T16:41:40.362Z,23.80
2018-03-21T16:44:09.080Z,26.80
2018-03-21T16:46:37.521Z,21.97
2018-03-21T16:49:05.758Z,27.10
2018-03-21T16:51:34.859Z,21.60
2018-03-21T16:54:04.905Z,23.50
2018-03-21T16:56:33.118Z,25.40
2018-03-21T16:59:01.607Z,23.13
2018-03-21T17:01:29.826Z,20.73
2018-03-21T17:03:58.362Z,24.97
2018-03-21T17:06:28.119Z,20.90
2018-03-21T17:08:57.520Z,23.43
2018-03-21T17:11:25.784Z,21.10
2018-03-21T17:13:54.019Z,26.83
2018-03-21T17:16:22.308Z,25.00
2018-03-21T17:18:50.553Z,23.00
2018-03-21T17:21:18.862Z,25.90
2018-03-21T17:23:47.094Z,26.20
2018-03-21T17:26:15.397Z,29.87
2018-03-21T17:28:43.672Z,24.17
2018-03-21T17:31:11.911Z,27.73
2018-03-21T17:33:40.172Z,24.53
2018-03-21T17:36:08.430Z,25.60
2018-03-21T17:38:36.664Z,22.10
2018-03-21T17:41:04.948Z,24.10
2018-03-21T17:43:33.240Z,21.80
2018-03-21T17:46:02.983Z,25.42
2018-03-21T17:48:31.353Z,23.50
2018-03-21T17:51:00.368Z,27.13
2018-03-21T17:53:35.163Z,24.43
2018-03-21T17:56:03.430Z,27.23
2018-03-21T17:58:31.734Z,24.83
2018-03-21T18:00:59.987Z,19.90
2018-03-21T18:03:28.267Z,20.90
2018-03-21T18:05:57.303Z,29.33
2018-03-21T18:08:25.603Z,21.80
2018-03-21T18:10:53.878Z,20.83
2018-03-21T18:13:22.945Z,25.90
2018-03-21T18:15:51.220Z,18.37
2018-03-21T18:18:19.468Z,19.87
2018-03-21T18:20:48.507Z,22.87
2018-03-21T18:23:17.806Z,20.37
2018-03-21T18:25:46.286Z,20.20
2018-03-21T18:28:14.738Z,24.30
2018-03-21T18:30:42.985Z,21.30
2018-03-21T18:33:11.307Z,19.13
2018-03-21T18:35:40.421Z,26.63
2018-03-21T18:38:08.717Z,21.87
2018-03-21T18:40:36.966Z,24.83
2018-03-21T18:43:05.258Z,19.40
2018-03-21T18:45:34.533Z,15.00
2018-03-21T18:48:02.795Z,17.23
2018-03-21T18:50:31.088Z,19.50
2018-03-21T18:52:59.426Z,15.43
2018-03-21T18:55:28.319Z,14.30
2018-03-21T18:57:58.088Z,22.00
2018-03-21T19:00:26.351Z,21.63
2018-03-21T19:02:54.973Z,11.70
2018-03-21T19:05:23.218Z,28.43
2018-03-21T19:07:51.489Z,24.30
2018-03-21T19:10:19.774Z,18.33
2018-03-21T19:12:48.020Z,15.43
2018-03-21T19:15:17.962Z,16.50
2018-03-21T19:17:46.384Z,14.50
2018-03-21T19:20:15.577Z,15.10
2018-03-21T19:22:45.562Z,15.17
2018-03-21T19:25:13.870Z,13.03
2018-03-21T19:27:42.101Z,13.83
2018-03-21T19:30:10.377Z,14.83
2018-03-21T19:32:39.550Z,14.00
2018-03-21T19:35:08.718Z,20.40
2018-03-21T19:37:36.967Z,14.80
2018-03-21T19:40:05.242Z,11.03
2018-03-21T19:42:33.477Z,16.40
2018-03-21T19:45:01.828Z,12.20
2018-03-21T19:47:30.123Z,11.47
2018-03-21T19:49:58.550Z,12.10
2018-03-21T19:52:26.873Z,15.50
2018-03-21T19:54:55.157Z,14.13
2018-03-21T19:57:23.616Z,10.10
2018-03-21T19:59:53.892Z,14.67
2018-03-21T20:02:22.378Z,12.63
2018-03-21T20:04:50.714Z,15.30
2018-03-21T20:07:19.022Z,10.80
2018-03-21T20:09:48.026Z,13.00
2018-03-21T20:12:16.349Z,17.03
2018-03-21T20:14:44.770Z,10.53
2018-03-21T20:17:13.166Z,11.90
2018-03-21T20:19:41.482Z,11.87
2018-03-21T20:22:09.861Z,18.63
2018-03-21T20:24:38.204Z,16.47
2018-03-21T20:27:07.386Z,13.17
2018-03-21T20:29:35.888Z,8.93
2018-03-21T20:32:05.160Z,12.43
2018-03-21T20:34:33.465Z,23.70
2018-03-21T20:37:01.714Z,10.43
2018-03-21T20:39:30.086Z,8.60
2018-03-21T20:41:58.502Z,8.30
2018-03-21T20:44:26.896Z,14.67
2018-03-21T20:46:55.831Z,8.93
2018-03-21T20:49:24.033Z,10.70
2018-03-21T20:51:53.199Z,10.40
2018-03-21T20:54:21.407Z,14.00
2018-03-21T20:56:49.788Z,10.93
2018-03-21T20:59:18.173Z,10.73
2018-03-21T21:01:46.443Z,13.27
2018-03-21T21:04:14.711Z,12.67
2018-03-21T21:06:43.058Z,14.47
2018-03-21T21:09:12.827Z,14.00
2018-03-21T21:11:41.067Z,15.63
2018-03-21T21:14:09.668Z,11.53
2018-03-21T21:16:37.921Z,11.63
2018-03-21T21:19:06.161Z,13.30
2018-03-21T21:21:34.544Z,10.83
2018-03-21T21:24:03.543Z,12.53
2018-03-21T21:26:32.581Z,14.00
2018-03-21T21:29:00.833Z,17.40
2018-03-21T21:31:29.122Z,18.20
2018-03-21T21:33:57.922Z,13.30
2018-03-21T21:36:26.161Z,11.30
2018-03-21T21:38:55.242Z,14.40
2018-03-21T21:41:23.518Z,17.17
2018-03-21T21:43:52.609Z,15.07
2018-03-21T21:46:21.172Z,14.93
2018-03-21T21:48:49.420Z,16.40
2018-03-21T21:51:17.768Z,13.93
2018-03-21T21:53:45.998Z,17.20
2018-03-21T21:56:14.317Z,16.03
2018-03-21T21:58:43.523Z,19.13
2018-03-21T22:01:12.547Z,11.83
2018-03-21T22:03:40.773Z,12.50
2018-03-21T22:06:10.065Z,11.70
2018-03-21T22:08:38.323Z,13.30
2018-03-21T22:11:06.721Z,16.17
2018-03-21T22:13:34.963Z,13.20
2018-03-21T22:16:03.385Z,13.83
2018-03-21T22:18:31.905Z,16.03
2018-03-21T22:21:00.293Z,19.20
2018-03-21T22:23:28.561Z,14.57
2018-03-21T22:25:56.825Z,15.00
2018-03-21T22:28:25.085Z,12.57
2018-03-21T22:30:54.121Z,10.97
2018-03-21T22:33:22.543Z,12.43
2018-03-21T22:35:50.969Z,19.30
2018-03-21T22:38:19.271Z,16.73
2018-03-21T22:40:47.576Z,17.73
2018-03-21T22:43:15.849Z,12.00
2018-03-21T22:45:44.412Z,12.77
2018-03-21T22:48:13.478Z,17.10
2018-03-21T22:50:41.702Z,15.93
2018-03-21T22:53:10.727Z,15.57
2018-03-21T22:55:39.721Z,11.87
2018-03-21T22:58:08.689Z,19.20
2018-03-21T23:00:37.717Z,16.50
2018-03-21T23:03:05.998Z,11.33
2018-03-21T23:05:36.446Z,21.50
2018-03-21T23:08:04.671Z,22.90
2018-03-21T23:10:33.712Z,15.57
2018-03-21T23:13:02.677Z,15.17
2018-03-21T23:15:30.934Z,19.57
2018-03-21T23:17:59.953Z,19.07
2018-03-21T23:20:28.193Z,19.57
2018-03-21T23:22:56.470Z,13.93
2018-03-21T23:25:24.712Z,18.83
2018-03-21T23:27:52.961Z,14.03
2018-03-21T23:30:21.230Z,17.40
2018-03-21T23:32:49.489Z,18.27
2018-03-21T23:35:18.496Z,16.37
2018-03-21T23:37:46.767Z,15.33
2018-03-21T23:40:15.215Z,16.63
2018-03-21T23:42:43.492Z,17.93
2018-03-21T23:45:11.779Z,16.30
2018-03-21T23:47:40.281Z,22.83
2018-03-21T23:50:08.754Z,19.33
2018-03-21T23:52:37.417Z,16.70
2018-03-21T23:55:05.645Z,19.07
2018-03-21T23:57:33.978Z,19.80
